createdAt,value
2018-06-23T00:02:04.394Z,99.90
2018-06-23T00:04:31.617Z,99.90
2018-06-23T00:06:58.586Z,99.90
2018-06-23T00:09:25.986Z,99.90
2018-06-23T00:11:52.898Z,99.90
2018-06-23T00:14:19.849Z,99.90
2018-06-23T00:16:47.038Z,99.90
2018-06-23T00:19:13.993Z,99.90
2018-06-23T00:21:40.905Z,99.90
2018-06-23T00:24:08.303Z,99.90
2018-06-23T00:26:35.224Z,99.90
2018-06-23T00:29:02.249Z,99.90
2018-06-23T00:31:29.165Z,99.90
2018-06-23T00:33:56.185Z,99.90
2018-06-23T00:36:23.170Z,99.90
2018-06-23T00:38:50.109Z,99.90
2018-06-23T00:41:17.311Z,99.90
2018-06-23T00:43:44.248Z,99.90
2018-06-23T00:46:11.186Z,99.90
2018-06-23T00:48:38.341Z,99.90
2018-06-23T00:51:05.397Z,99.90
2018-06-23T00:53:32.338Z,99.90
2018-06-23T00:55:59.423Z,99.90
2018-06-23T00:58:26.340Z,99.90
2018-06-23T01:00:53.282Z,99.90
2018-06-23T01:03:20.946Z,99.90
2018-06-23T01:05:49.018Z,99.90
2018-06-23T01:08:16.474Z,99.90
2018-06-23T01:10:43.441Z,99.90
2018-06-23T01:13:10.357Z,99.90
2018-06-23T01:15:37.306Z,99.90
2018-06-23T01:18:04.230Z,99.90
2018-06-23T01:20:31.169Z,99.90
2018-06-23T01:22:58.093Z,99.90
2018-06-23T01:25:25.102Z,99.90
2018-06-23T01:27:52.050Z,99.90
2018-06-23T01:30:18.965Z,99.90
2018-06-23T01:32:45.903Z,99.90
2018-06-23T01:35:12.830Z,99.90
2018-06-23T01:37:39.761Z,99.90
2018-06-23T01:40:06.678Z,99.90
2018-06-23T01:42:33.610Z,99.90
2018-06-23T01:45:00.527Z,99.90
2018-06-23T01:47:27.746Z,99.90
2018-06-23T01:49:54.662Z,99.90
2018-06-23T01:52:21.598Z,99.90
2018-06-23T01:54:48.509Z,99.90
2018-06-23T01:57:15.466Z,99.90
2018-06-23T01:59:42.413Z,99.90
2018-06-23T02:02:09.354Z,99.90
2018-06-23T02:04:36.309Z,99.90
2018-06-23T02:07:03.486Z,99.90
2018-06-23T02:09:30.433Z,99.90
2018-06-23T02:11:57.441Z,99.90
2018-06-23T02:14:30.036Z,99.90
2018-06-23T02:17:02.546Z,99.90
2018-06-23T02:19:35.281Z,99.90
2018-06-23T02:22:08.173Z,99.90
2018-06-23T02:24:40.848Z,99.90
2018-06-23T02:27:13.509Z,99.90
2018-06-23T02:29:46.213Z,99.90
2018-06-23T02:32:18.793Z,99.90
2018-06-23T02:34:51.442Z,99.90
2018-06-23T02:37:18.365Z,99.90
2018-06-23T02:39:45.310Z,99.90
2018-06-23T02:42:12.229Z,99.90
2018-06-23T02:44:39.182Z,99.90
2018-06-23T02:47:06.105Z,99.90
2018-06-23T02:49:33.045Z,99.90
2018-06-23T02:51:59.962Z,99.90
2018-06-23T02:54:27.255Z,99.90
2018-06-23T02:56:54.233Z,99.90
2018-06-23T02:59:21.178Z,99.90
2018-06-23T03:01:48.833Z,99.90
2018-06-23T03:04:16.320Z,99.90
2018-06-23T03:06:43.244Z,99.90
2018-06-23T03:09:10.193Z,99.90
2018-06-23T03:11:37.122Z,99.90
2018-06-23T03:14:04.078Z,99.90
2018-06-23T03:16:31.843Z,99.90
2018-06-23T03:18:58.794Z,99.90
2018-06-23T03:21:25.719Z,99.90
2018-06-23T03:23:52.673Z,99.90
2018-06-23T03:26:19.582Z,99.90
2018-06-23T03:28:46.536Z,99.90
2018-06-23T03:31:13.449Z,99.90
2018-06-23T03:33:40.389Z,99.90
2018-06-23T03:36:07.314Z,99.90
2018-06-23T03:38:34.256Z,99.90
2018-06-23T03:41:01.191Z,99.90
2018-06-23T03:43:28.169Z,99.90
2018-06-23T03:45:55.087Z,99.90
2018-06-23T03:48:22.034Z,99.90
2018-06-23T03:50:48.945Z,99.90
2018-06-23T03:53:15.861Z,99.90
2018-06-23T03:55:42.810Z,99.90
2018-06-23T03:58:09.725Z,99.90
2018-06-23T04:00:39.090Z,99.90
2018-06-23T04:03:06.006Z,99.90
2018-06-23T04:07:59.979Z,99.90
2018-06-23T04:10:26.934Z,99.90
2018-06-23T04:12:54.049Z,99.90
2018-06-23T04:15:20.989Z,99.90
2018-06-23T04:17:47.909Z,99.90
2018-06-23T04:20:14.853Z,99.90
2018-06-23T04:22:41.774Z,99.90
2018-06-23T04:25:08.725Z,99.90
2018-06-23T04:27:35.720Z,99.90
2018-06-23T04:30:02.670Z,99.90
2018-06-23T04:32:29.584Z,99.90
2018-06-23T04:34:56.529Z,99.90
2018-06-23T04:37:23.785Z,99.90
2018-06-23T04:39:50.806Z,99.90
2018-06-23T04:42:17.736Z,99.90
2018-06-23T04:44:44.654Z,99.90
2018-06-23T04:47:11.612Z,99.90
2018-06-23T04:49:38.529Z,99.90
2018-06-23T04:52:05.467Z,99.90
2018-06-23T04:54:32.422Z,99.90
2018-06-23T04:56:59.366Z,99.90
2018-06-23T04:59:26.290Z,99.90
2018-06-23T05:01:53.243Z,99.90
2018-06-23T05:04:20.191Z,99.90
2018-06-23T05:06:47.131Z,99.90
2018-06-23T05:09:14.046Z,99.90
2018-06-23T05:11:41.025Z,99.90
2018-06-23T05:14:07.946Z,99.90
2018-06-23T05:16:34.890Z,99.90
2018-06-23T05:19:01.811Z,99.90
2018-06-23T05:21:28.757Z,99.90
2018-06-23T05:23:56.293Z,99.90
2018-06-23T05:26:23.489Z,99.90
2018-06-23T05:28:50.409Z,99.90
2018-06-23T05:31:17.354Z,99.90
2018-06-23T05:33:44.274Z,99.90
2018-06-23T05:36:11.222Z,99.90
2018-06-23T05:38:38.146Z,99.90
2018-06-23T05:41:05.254Z,99.90
2018-06-23T05:43:32.173Z,99.90
2018-06-23T05:45:59.118Z,99.90
2018-06-23T05:48:26.038Z,99.90
2018-06-23T05:50:52.957Z,99.90
2018-06-23T05:53:19.907Z,99.90
2018-06-23T05:55:46.854Z,99.90
2018-06-23T05:58:13.757Z,99.90
2018-06-23T06:00:40.736Z,99.90
2018-06-23T06:03:07.654Z,99.90
2018-06-23T06:05:34.658Z,99.90
2018-06-23T06:08:01.579Z,99.90
2018-06-23T06:12:55.486Z,99.90
2018-06-23T06:15:22.397Z,99.90
2018-06-23T06:17:49.317Z,99.90
2018-06-23T06:20:16.594Z,99.90
2018-06-23T06:22:44.734Z,99.90
2018-06-23T06:25:12.381Z,99.90
2018-06-23T06:27:39.300Z,99.90
2018-06-23T06:30:08.066Z,99.90
2018-06-23T06:32:34.982Z,99.90
2018-06-23T06:35:01.927Z,99.90
2018-06-23T06:37:28.842Z,99.90
2018-06-23T06:39:56.057Z,99.90
2018-06-23T06:42:23.001Z,99.90
2018-06-23T06:44:49.942Z,99.90
2018-06-23T06:47:17.791Z,99.90
2018-06-23T06:49:44.730Z,99.90
2018-06-23T06:52:11.661Z,99.90
2018-06-23T06:54:38.569Z,99.90
2018-06-23T06:57:05.555Z,99.90
2018-06-23T06:59:32.485Z,99.90
2018-06-23T07:01:59.742Z,99.90
2018-06-23T07:04:26.693Z,99.90
2018-06-23T07:06:53.638Z,99.90
2018-06-23T07:09:20.558Z,99.90
2018-06-23T07:11:47.522Z,99.90
2018-06-23T07:14:14.437Z,99.90
2018-06-23T07:16:41.873Z,99.90
2018-06-23T07:19:09.007Z,99.90
2018-06-23T07:21:35.944Z,99.90
2018-06-23T07:24:03.985Z,99.90
2018-06-23T07:26:30.946Z,99.90
2018-06-23T07:28:57.866Z,99.90
2018-06-23T07:31:24.826Z,99.90
2018-06-23T07:33:51.793Z,99.90
2018-06-23T07:36:18.847Z,99.90
2018-06-23T07:38:45.950Z,99.90
2018-06-23T07:41:12.878Z,99.90
2018-06-23T07:43:39.867Z,99.90
2018-06-23T07:46:06.794Z,99.90
2018-06-23T07:48:33.710Z,99.90
2018-06-23T07:51:00.657Z,99.90
2018-06-23T07:53:27.978Z,99.90
2018-06-23T07:55:54.906Z,99.90
2018-06-23T07:58:21.821Z,99.90
2018-06-23T08:00:48.797Z,99.90
2018-06-23T08:03:15.782Z,99.90
2018-06-23T08:05:42.689Z,99.90
2018-06-23T08:08:09.629Z,99.90
2018-06-23T08:10:37.221Z,99.90
2018-06-23T08:13:04.168Z,99.90
2018-06-23T08:15:31.429Z,99.90
2018-06-23T08:17:58.369Z,99.90
2018-06-23T08:20:25.285Z,99.90
2018-06-23T08:22:52.292Z,99.90
2018-06-23T08:27:46.212Z,99.90
2018-06-23T08:30:13.173Z,99.90
2018-06-23T08:32:40.121Z,99.90
2018-06-23T08:35:07.063Z,99.90
2018-06-23T08:37:34.086Z,99.90
2018-06-23T08:40:01.266Z,99.90
2018-06-23T08:42:28.366Z,99.90
2018-06-23T08:44:55.282Z,99.90
2018-06-23T08:47:22.278Z,99.90
2018-06-23T08:52:16.149Z,99.90
2018-06-23T08:54:43.067Z,99.90
2018-06-23T08:57:10.107Z,99.90
2018-06-23T08:59:37.022Z,99.90
2018-06-23T09:02:03.946Z,99.90
2018-06-23T09:04:30.913Z,99.90
2018-06-23T09:06:57.893Z,99.90
2018-06-23T09:09:24.855Z,99.90
2018-06-23T09:11:51.753Z,99.90
2018-06-23T09:14:18.706Z,99.90
2018-06-23T09:16:45.641Z,99.90
2018-06-23T09:19:12.605Z,99.90
2018-06-23T09:21:39.769Z,99.90
2018-06-23T09:24:06.686Z,99.90
2018-06-23T09:26:33.610Z,99.90
2018-06-23T09:29:00.555Z,99.90
2018-06-23T09:31:27.478Z,99.90
2018-06-23T09:33:54.575Z,99.90
2018-06-23T09:36:21.510Z,99.90
2018-06-23T09:38:48.454Z,99.90
2018-06-23T09:41:15.666Z,99.90
2018-06-23T09:43:42.606Z,99.90
2018-06-23T09:46:09.522Z,99.90
2018-06-23T09:48:36.534Z,99.90
2018-06-23T09:51:03.460Z,99.90
2018-06-23T09:53:30.405Z,99.90
2018-06-23T09:55:57.431Z,99.90
2018-06-23T09:58:24.314Z,99.90
2018-06-23T10:00:51.229Z,99.90
2018-06-23T10:03:18.230Z,99.90
2018-06-23T10:05:45.134Z,99.90
2018-06-23T10:08:12.073Z,99.90
2018-06-23T10:10:38.994Z,99.90
2018-06-23T10:13:05.931Z,99.90
2018-06-23T10:15:32.893Z,99.90
2018-06-23T10:17:59.862Z,99.90
2018-06-23T10:20:26.786Z,99.90
2018-06-23T10:22:53.729Z,99.90
2018-06-23T10:25:20.638Z,99.90
2018-06-23T10:27:47.578Z,99.90
2018-06-23T10:30:14.509Z,99.90
2018-06-23T10:32:41.483Z,99.90
2018-06-23T10:35:08.406Z,99.90
2018-06-23T10:37:35.529Z,99.90
2018-06-23T10:40:02.918Z,99.90
2018-06-23T10:42:30.153Z,99.90
2018-06-23T10:44:57.073Z,99.90
2018-06-23T10:47:24.201Z,99.90
2018-06-23T10:49:51.113Z,99.90
2018-06-23T10:52:18.021Z,99.90
2018-06-23T10:54:44.961Z,99.90
2018-06-23T10:57:11.964Z,99.90
2018-06-23T10:59:38.879Z,99.90
2018-06-23T11:02:05.800Z,99.90
2018-06-23T11:04:32.778Z,99.90
2018-06-23T11:06:59.702Z,99.90
2018-06-23T11:09:26.802Z,99.90
2018-06-23T11:11:53.722Z,99.90
2018-06-23T11:14:20.657Z,99.90
2018-06-23T11:16:48.152Z,99.90
2018-06-23T11:19:15.090Z,99.90
2018-06-23T11:21:42.012Z,99.90
2018-06-23T11:24:08.953Z,99.90
2018-06-23T11:26:35.873Z,99.90
2018-06-23T11:29:02.969Z,99.90
2018-06-23T11:31:29.886Z,99.90
2018-06-23T11:33:56.817Z,99.90
2018-06-23T11:36:23.790Z,99.90
2018-06-23T11:38:50.706Z,99.90
2018-06-23T11:41:17.651Z,99.90
2018-06-23T11:43:44.797Z,96.20
2018-06-23T11:46:11.866Z,95.10
2018-06-23T11:48:38.781Z,93.70
2018-06-23T11:51:05.811Z,93.90
2018-06-23T11:53:32.729Z,93.40
2018-06-23T11:55:59.737Z,93.30
2018-06-23T11:58:26.690Z,94.10
2018-06-23T12:00:53.638Z,95.20
2018-06-23T12:03:20.581Z,97.10
2018-06-23T12:05:47.530Z,97.50
2018-06-23T12:08:14.454Z,98.30
2018-06-23T12:10:41.397Z,98.70
2018-06-23T12:13:08.310Z,99.10
2018-06-23T12:15:35.268Z,99.60
2018-06-23T12:18:02.195Z,99.90
2018-06-23T12:20:29.151Z,99.90
2018-06-23T12:22:56.069Z,99.90
2018-06-23T12:25:23.076Z,99.90
2018-06-23T12:27:49.970Z,99.90
2018-06-23T12:30:17.038Z,99.90
2018-06-23T12:32:43.953Z,99.90
2018-06-23T12:35:10.978Z,99.90
2018-06-23T12:37:37.904Z,99.90
2018-06-23T12:40:04.984Z,99.90
2018-06-23T12:42:31.899Z,99.90
2018-06-23T12:44:58.850Z,99.90
2018-06-23T12:47:25.770Z,99.90
2018-06-23T12:49:52.705Z,99.90
2018-06-23T12:52:19.626Z,99.90
2018-06-23T12:54:46.570Z,99.90
2018-06-23T12:57:13.490Z,99.90
2018-06-23T12:59:41.005Z,99.90
2018-06-23T13:02:07.933Z,99.90
2018-06-23T13:04:34.908Z,99.90
2018-06-23T13:07:01.830Z,99.90
2018-06-23T13:09:28.762Z,99.90
2018-06-23T13:11:55.686Z,99.90
2018-06-23T13:14:22.621Z,99.90
2018-06-23T13:16:49.542Z,99.90
2018-06-23T13:19:16.483Z,99.90
2018-06-23T13:21:43.394Z,99.90
2018-06-23T13:24:10.337Z,99.90
2018-06-23T13:26:37.265Z,99.90
2018-06-23T13:31:31.110Z,99.90
2018-06-23T13:33:58.310Z,99.90
2018-06-23T13:36:25.221Z,99.90
2018-06-23T13:38:52.169Z,99.90
2018-06-23T13:41:19.085Z,99.80
2018-06-23T13:43:46.029Z,98.10
2018-06-23T13:46:12.941Z,97.80
2018-06-23T13:48:39.902Z,97.20
2018-06-23T13:51:06.823Z,97.00
2018-06-23T13:53:33.742Z,97.60
2018-06-23T13:56:00.930Z,97.70
2018-06-23T13:58:27.870Z,98.60
2018-06-23T14:00:55.062Z,98.70
2018-06-23T14:03:22.396Z,99.10
2018-06-23T14:05:49.318Z,98.90
2018-06-23T14:08:16.234Z,99.00
2018-06-23T14:10:43.178Z,99.50
2018-06-23T14:13:10.096Z,99.90
2018-06-23T14:15:37.038Z,99.90
2018-06-23T14:18:03.994Z,99.90
2018-06-23T14:20:30.986Z,99.90
2018-06-23T14:22:57.908Z,99.90
2018-06-23T14:25:24.858Z,99.90
2018-06-23T14:27:51.826Z,99.90
2018-06-23T14:30:18.745Z,99.90
2018-06-23T14:32:45.691Z,99.90
2018-06-23T14:35:12.610Z,99.90
2018-06-23T14:37:39.541Z,99.80
2018-06-23T14:40:06.649Z,99.90
2018-06-23T14:42:33.553Z,99.90
2018-06-23T14:45:00.508Z,99.90
2018-06-23T14:47:27.438Z,99.90
2018-06-23T14:49:54.394Z,99.90
2018-06-23T14:52:21.334Z,99.90
2018-06-23T14:54:48.252Z,99.90
2018-06-23T14:57:15.510Z,99.90
2018-06-23T14:59:42.439Z,99.90
2018-06-23T15:02:09.378Z,99.90
2018-06-23T15:04:36.350Z,99.90
2018-06-23T15:07:03.282Z,99.90
2018-06-23T15:09:36.089Z,99.90
2018-06-23T15:12:08.763Z,99.90
2018-06-23T15:14:35.709Z,99.90
2018-06-23T15:17:02.659Z,99.90
2018-06-23T15:19:29.921Z,99.90
2018-06-23T15:21:56.838Z,99.90
2018-06-23T15:24:23.921Z,99.90
2018-06-23T15:26:50.841Z,99.90
2018-06-23T15:29:17.790Z,99.90
2018-06-23T15:31:44.998Z,99.90
2018-06-23T15:34:11.986Z,99.90
2018-06-23T15:36:38.904Z,99.90
2018-06-23T15:39:06.162Z,99.90
2018-06-23T15:44:00.250Z,99.90
2018-06-23T15:46:27.177Z,99.90
2018-06-23T15:48:54.129Z,99.90
2018-06-23T15:51:21.053Z,99.90
2018-06-23T15:53:48.394Z,99.90
2018-06-23T15:56:15.585Z,99.90
2018-06-23T15:58:42.526Z,99.90
2018-06-23T16:01:09.448Z,99.90
2018-06-23T16:03:36.546Z,99.90
2018-06-23T16:06:03.462Z,99.90
2018-06-23T16:08:30.434Z,99.90
2018-06-23T16:10:57.349Z,99.90
2018-06-23T16:13:24.269Z,99.90
2018-06-23T16:15:51.220Z,99.90
2018-06-23T16:18:18.138Z,99.90
2018-06-23T16:20:45.087Z,99.90
2018-06-23T16:23:12.080Z,99.90
2018-06-23T16:25:39.003Z,99.90
2018-06-23T16:28:05.948Z,99.90
2018-06-23T16:30:32.871Z,99.90
2018-06-23T16:32:59.788Z,99.90
2018-06-23T16:35:27.120Z,99.90
2018-06-23T16:40:20.599Z,99.90
2018-06-23T16:42:47.521Z,99.90
2018-06-23T16:45:14.461Z,99.90
2018-06-23T16:47:41.384Z,99.90
2018-06-23T16:50:08.330Z,99.90
2018-06-23T16:52:35.248Z,99.90
2018-06-23T16:55:02.201Z,99.90
2018-06-23T16:57:29.337Z,99.90
2018-06-23T16:59:56.277Z,99.90
2018-06-23T17:02:23.210Z,99.90
2018-06-23T17:04:50.186Z,99.90
2018-06-23T17:07:17.102Z,99.90
2018-06-23T17:09:44.290Z,99.90
2018-06-23T17:12:11.233Z,99.90
2018-06-23T17:14:38.186Z,99.90
2018-06-23T17:17:05.150Z,99.90
2018-06-23T17:19:32.154Z,99.90
2018-06-23T17:21:59.074Z,99.90
2018-06-23T17:24:26.014Z,99.90
2018-06-23T17:26:52.930Z,99.90
2018-06-23T17:29:19.898Z,99.90
2018-06-23T17:31:46.817Z,99.90
2018-06-23T17:34:13.758Z,99.90
2018-06-23T17:36:40.673Z,99.90
2018-06-23T17:39:08.426Z,99.90
2018-06-23T17:41:35.370Z,99.90
2018-06-23T17:44:02.285Z,99.90
2018-06-23T17:46:29.234Z,99.90
2018-06-23T17:48:56.214Z,99.90
2018-06-23T17:51:23.159Z,99.90
2018-06-23T17:53:50.139Z,99.90
2018-06-23T17:56:17.090Z,99.90
2018-06-23T17:58:44.018Z,99.90
2018-06-23T18:01:10.963Z,99.90
2018-06-23T18:03:38.212Z,99.90
2018-06-23T18:06:05.216Z,99.90
2018-06-23T18:08:32.117Z,99.90
2018-06-23T18:10:59.071Z,99.90
2018-06-23T18:13:25.996Z,99.90
2018-06-23T18:15:52.934Z,99.90
2018-06-23T18:18:19.854Z,99.90
2018-06-23T18:20:46.830Z,99.90
2018-06-23T18:23:13.742Z,99.90
2018-06-23T18:25:40.711Z,99.90
2018-06-23T18:28:07.629Z,99.90
2018-06-23T18:30:34.580Z,99.90
2018-06-23T18:33:01.508Z,99.90
2018-06-23T18:35:28.465Z,99.90
2018-06-23T18:37:55.373Z,99.90
2018-06-23T18:40:22.309Z,99.90
2018-06-23T18:42:49.241Z,99.90
2018-06-23T18:45:16.180Z,99.90
2018-06-23T18:47:43.093Z,99.90
2018-06-23T18:50:10.053Z,99.90
2018-06-23T18:52:36.962Z,99.90
2018-06-23T18:57:31.133Z,99.90
2018-06-23T18:59:58.070Z,99.90
2018-06-23T19:02:25.014Z,99.90
2018-06-23T19:04:52.077Z,99.90
2018-06-23T19:07:18.997Z,99.90
2018-06-23T19:09:45.936Z,99.90
2018-06-23T19:12:12.854Z,99.90
2018-06-23T19:14:40.094Z,99.90
2018-06-23T19:17:07.018Z,99.90
2018-06-23T19:19:33.942Z,99.90
2018-06-23T19:22:00.890Z,99.90
2018-06-23T19:24:27.809Z,99.90
2018-06-23T19:26:54.763Z,99.90
2018-06-23T19:29:21.689Z,99.90
2018-06-23T19:31:48.630Z,99.90
2018-06-23T19:34:15.552Z,99.90
2018-06-23T19:39:10.217Z,99.90
2018-06-23T19:41:37.157Z,99.90
2018-06-23T19:44:04.130Z,99.90
2018-06-23T19:46:31.103Z,99.90
2018-06-23T19:48:58.014Z,99.90
2018-06-23T19:51:24.961Z,99.90
2018-06-23T19:53:51.928Z,99.90
2018-06-23T19:56:18.850Z,99.90
2018-06-23T19:58:45.765Z,99.90
2018-06-23T20:01:12.746Z,99.90
2018-06-23T20:03:39.689Z,99.90
2018-06-23T20:06:07.204Z,99.90
2018-06-23T20:08:34.125Z,99.90
2018-06-23T20:11:01.065Z,99.90
2018-06-23T20:13:28.274Z,99.90
2018-06-23T20:15:55.247Z,99.90
2018-06-23T20:18:22.298Z,99.90
2018-06-23T20:20:49.214Z,99.90
2018-06-23T20:23:16.162Z,99.90
2018-06-23T20:25:43.086Z,99.90
2018-06-23T20:28:10.029Z,99.90
2018-06-23T20:30:36.946Z,99.90
2018-06-23T20:33:03.902Z,99.90
2018-06-23T20:35:30.890Z,99.90
2018-06-23T20:37:57.834Z,99.90
2018-06-23T20:40:24.754Z,99.90
2018-06-23T20:42:51.698Z,99.90
2018-06-23T20:45:18.674Z,99.90
2018-06-23T20:47:45.645Z,99.90
2018-06-23T20:50:12.562Z,99.90
2018-06-23T20:52:39.530Z,99.90
2018-06-23T20:55:06.490Z,99.90
2018-06-23T20:57:33.458Z,99.90
2018-06-23T21:00:00.410Z,99.90
2018-06-23T21:02:27.325Z,99.90
2018-06-23T21:04:54.298Z,99.90
2018-06-23T21:07:21.257Z,99.90
2018-06-23T21:09:48.200Z,99.90
2018-06-23T21:12:15.130Z,99.90
2018-06-23T21:14:42.073Z,99.90
2018-06-23T21:17:08.986Z,99.90
2018-06-23T21:19:35.926Z,99.90
2018-06-23T21:22:02.837Z,99.90
2018-06-23T21:24:29.773Z,99.90
2018-06-23T21:26:56.693Z,99.90
2018-06-23T21:29:23.638Z,99.90
2018-06-23T21:31:50.553Z,99.90
2018-06-23T21:34:17.502Z,99.90
2018-06-23T21:36:44.424Z,99.90
2018-06-23T21:39:11.369Z,99.90
2018-06-23T21:41:38.410Z,99.90
2018-06-23T21:44:05.714Z,99.90
2018-06-23T21:46:32.628Z,99.90
2018-06-23T21:48:59.810Z,99.90
2018-06-23T21:53:53.654Z,99.90
2018-06-23T21:56:20.564Z,99.90
2018-06-23T21:58:47.498Z,99.90
2018-06-23T22:01:14.422Z,99.90
2018-06-23T22:03:41.385Z,99.90
2018-06-23T22:06:08.386Z,99.90
2018-06-23T22:08:35.318Z,99.90
2018-06-23T22:11:02.230Z,99.90
2018-06-23T22:15:56.930Z,99.90
2018-06-23T22:18:23.885Z,99.90
2018-06-23T22:20:50.821Z,99.90
2018-06-23T22:23:17.942Z,99.90
2018-06-23T22:25:44.861Z,99.90
2018-06-23T22:28:11.773Z,99.90
2018-06-23T22:30:38.717Z,99.90
2018-06-23T22:33:05.633Z,99.90
2018-06-23T22:35:32.573Z,99.90
2018-06-23T22:37:59.488Z,99.90
2018-06-23T22:40:26.433Z,99.90
2018-06-23T22:42:53.351Z,99.90
2018-06-23T22:45:20.285Z,99.90
2018-06-23T22:47:47.201Z,99.90
2018-06-23T22:50:14.216Z,99.90
2018-06-23T22:52:41.134Z,99.90
2018-06-23T22:55:09.090Z,99.90
2018-06-23T22:57:36.018Z,99.90
2018-06-23T23:00:04.821Z,99.90
2018-06-23T23:02:31.746Z,99.90
2018-06-23T23:04:58.820Z,99.90
2018-06-23T23:07:25.750Z,99.90
2018-06-23T23:09:52.693Z,99.90
2018-06-23T23:12:19.609Z,99.90
2018-06-23T23:14:46.529Z,99.90
2018-06-23T23:17:13.510Z,99.90
2018-06-23T23:19:40.434Z,99.90
2018-06-23T23:22:07.386Z,99.90
2018-06-23T23:24:34.310Z,99.90
2018-06-23T23:27:01.262Z,99.90
2018-06-23T23:29:28.194Z,99.90
2018-06-23T23:31:55.146Z,99.90
2018-06-23T23:34:22.061Z,99.90
2018-06-23T23:36:49.002Z,99.90
2018-06-23T23:39:15.943Z,99.90
2018-06-23T23:41:42.891Z,99.90
2018-06-23T23:44:09.811Z,99.90
2018-06-23T23:46:36.757Z,99.90
2018-06-23T23:49:03.685Z,99.90
2018-06-23T23:51:30.629Z,99.90
2018-06-23T23:53:57.726Z,99.90
2018-06-23T23:56:25.242Z,99.90
2018-06-23T23:58:52.173Z,99.90
